Nagano, Japan
Current Conditions -  °F | °C
As of 7:00 AM on Thursday 29 Jan 2015 (Local Time) from RJNT Reporting Station
Broken Clouds Broken Clouds  
Wind Chill: 30°   Ceiling: 6000
Heat Index: 30°   Visibility: 6mi
Dew Point: 19°   Wind: 2mph
Humidity: 64%   Direction: NA
Pressure: 30.42"   Gusts: NA
Location:  36.65°N, 138.18°E
Report Text: RJNT 282200Z VRB02KT 9999 FEW030 BKN060 BKN080 M01/M07 Q1030
Loading
Personal Weather Stations






























Interactive Weather Map New forecast layout! Learn more

10-Day Weather Forecast

Advertisements
Track Severe Weather on mobile